createdAt,value
2023-02-12T00:01:12.827Z,3.12
2023-02-12T00:03:57.806Z,2.98
2023-02-12T00:06:43.002Z,2.89
2023-02-12T00:09:27.843Z,2.98
2023-02-12T00:12:12.879Z,2.97
2023-02-12T00:14:58.320Z,3.04
2023-02-12T00:17:43.117Z,3.12
2023-02-12T00:20:28.007Z,3.21
2023-02-12T00:23:13.006Z,3.09
2023-02-12T00:25:57.908Z,3.17
2023-02-12T00:28:43.083Z,3.22
2023-02-12T00:31:28.238Z,3.31
2023-02-12T00:34:13.466Z,2.88
2023-02-12T00:36:58.266Z,2.71
2023-02-12T00:39:43.223Z,3.01
2023-02-12T00:42:28.153Z,3.00
2023-02-12T00:45:13.204Z,2.71
2023-02-12T00:47:58.016Z,2.61
2023-02-12T00:50:42.834Z,2.73
2023-02-12T00:53:27.746Z,2.94
2023-02-12T00:56:12.585Z,2.73
2023-02-12T00:58:57.356Z,2.64
2023-02-12T01:01:42.253Z,2.93
2023-02-12T01:04:27.691Z,2.78
2023-02-12T01:07:12.646Z,2.93
2023-02-12T01:09:57.703Z,2.77
2023-02-12T01:12:42.561Z,2.61
2023-02-12T01:15:27.463Z,3.00
2023-02-12T01:18:12.152Z,2.68
2023-02-12T01:20:57.031Z,2.98
2023-02-12T01:23:41.870Z,2.58
2023-02-12T01:26:26.770Z,2.65
2023-02-12T01:29:11.672Z,2.86
2023-02-12T01:31:56.604Z,2.71
2023-02-12T01:34:42.015Z,2.79
2023-02-12T01:37:26.736Z,2.73
2023-02-12T01:40:11.616Z,2.82
2023-02-12T01:42:56.446Z,2.92
2023-02-12T01:45:41.388Z,2.86
2023-02-12T01:48:26.277Z,2.75
2023-02-12T01:51:11.193Z,2.83
2023-02-12T01:53:56.096Z,2.84
2023-02-12T01:56:41.044Z,2.56
2023-02-12T01:59:25.895Z,2.89
2023-02-12T02:02:10.653Z,2.75
2023-02-12T02:04:55.545Z,2.57
2023-02-12T02:07:40.275Z,2.63
2023-02-12T02:10:25.215Z,2.76
2023-02-12T02:13:10.121Z,2.93
2023-02-12T02:15:55.375Z,2.61
2023-02-12T02:18:40.323Z,2.46
2023-02-12T02:21:25.122Z,2.58
2023-02-12T02:24:10.194Z,2.46
2023-02-12T02:26:55.047Z,2.44
2023-02-12T02:29:40.005Z,2.82
2023-02-12T02:32:24.920Z,2.60
2023-02-12T02:35:09.952Z,2.86
2023-02-12T02:37:54.941Z,2.61
2023-02-12T02:40:39.716Z,2.89
2023-02-12T02:43:24.746Z,2.63
2023-02-12T02:46:09.600Z,2.37
2023-02-12T02:48:54.529Z,2.44
2023-02-12T02:51:39.363Z,2.76
2023-02-12T02:54:24.230Z,2.79
2023-02-12T02:57:09.030Z,2.56
2023-02-12T02:59:53.916Z,2.56
2023-02-12T03:02:38.798Z,2.66
2023-02-12T03:05:23.711Z,2.41
2023-02-12T03:08:08.405Z,2.60
2023-02-12T03:10:53.150Z,2.50
2023-02-12T03:13:38.180Z,2.17
2023-02-12T03:16:22.976Z,2.45
2023-02-12T03:19:07.967Z,2.12
2023-02-12T03:21:52.855Z,2.39
2023-02-12T03:24:37.847Z,2.36
2023-02-12T03:27:22.802Z,2.34
2023-02-12T03:30:07.651Z,2.44
2023-02-12T03:32:52.629Z,2.61
2023-02-12T03:35:37.407Z,2.55
2023-02-12T03:38:22.387Z,2.43
2023-02-12T03:41:07.117Z,2.62
2023-02-12T03:43:51.901Z,2.43
2023-02-12T03:46:36.753Z,2.65
2023-02-12T03:49:21.630Z,2.40
2023-02-12T03:52:06.526Z,2.49
2023-02-12T03:54:51.499Z,2.71
2023-02-12T03:57:36.441Z,2.68
2023-02-12T04:00:21.268Z,2.54
2023-02-12T04:03:06.317Z,2.41
2023-02-12T04:05:51.268Z,2.52
2023-02-12T04:08:36.302Z,2.31
2023-02-12T04:11:21.113Z,2.34
2023-02-12T04:14:05.882Z,2.28
2023-02-12T04:16:50.788Z,2.36
2023-02-12T04:19:35.584Z,2.49
2023-02-12T04:22:20.401Z,1.88
2023-02-12T04:25:05.244Z,1.66
2023-02-12T04:27:50.200Z,2.06
2023-02-12T04:30:35.049Z,2.12
2023-02-12T04:33:19.936Z,2.10
2023-02-12T04:36:04.771Z,2.10
2023-02-12T04:38:49.596Z,2.13
2023-02-12T04:41:34.440Z,2.19
2023-02-12T04:44:19.338Z,2.34
2023-02-12T04:47:04.280Z,2.08
2023-02-12T04:49:49.115Z,1.98
2023-02-12T04:52:34.058Z,2.05
2023-02-12T04:55:18.827Z,1.96
2023-02-12T04:58:03.630Z,1.90
2023-02-12T05:00:48.517Z,1.62
2023-02-12T05:03:33.679Z,1.82
2023-02-12T05:06:18.425Z,1.67
2023-02-12T05:09:03.410Z,2.11
2023-02-12T05:11:48.326Z,2.17
2023-02-12T05:14:33.317Z,2.27
2023-02-12T05:17:18.347Z,2.17
2023-02-12T05:20:03.234Z,2.15
2023-02-12T05:22:48.292Z,2.00
2023-02-12T05:25:33.220Z,2.20
2023-02-12T05:28:18.583Z,2.04
2023-02-12T05:31:03.623Z,1.96
2023-02-12T05:33:48.872Z,1.96
2023-02-12T05:36:33.872Z,2.04
2023-02-12T05:39:18.613Z,1.63
2023-02-12T05:42:03.620Z,1.81
2023-02-12T05:44:48.451Z,1.75
2023-02-12T05:47:33.387Z,1.96
2023-02-12T05:50:18.120Z,2.06
2023-02-12T05:53:03.174Z,2.13
2023-02-12T05:55:47.963Z,1.98
2023-02-12T05:58:32.852Z,1.99
2023-02-12T06:01:17.682Z,1.93
2023-02-12T06:04:02.648Z,1.87
2023-02-12T06:06:49.135Z,1.98
2023-02-12T06:09:34.175Z,1.88
2023-02-12T06:12:19.137Z,1.98
2023-02-12T06:15:03.968Z,2.08
2023-02-12T06:17:48.889Z,1.91
2023-02-12T06:20:33.849Z,1.94
2023-02-12T06:23:18.750Z,1.85
2023-02-12T06:26:03.648Z,2.05
2023-02-12T06:28:48.497Z,2.04
2023-02-12T06:31:33.420Z,2.12
2023-02-12T06:34:18.559Z,2.21
2023-02-12T06:37:03.589Z,1.98
2023-02-12T06:39:48.441Z,1.97
2023-02-12T06:42:33.305Z,1.57
2023-02-12T06:45:18.161Z,1.86
2023-02-12T06:48:02.994Z,2.02
2023-02-12T06:50:47.898Z,2.06
2023-02-12T06:53:32.718Z,1.74
2023-02-12T06:56:17.734Z,2.03
2023-02-12T06:59:02.620Z,2.04
2023-02-12T07:01:47.481Z,2.00
2023-02-12T07:04:32.382Z,1.89
2023-02-12T07:07:17.231Z,2.08
2023-02-12T07:10:02.282Z,2.12
2023-02-12T07:12:47.142Z,2.05
2023-02-12T07:15:32.189Z,2.24
2023-02-12T07:18:17.096Z,2.24
2023-02-12T07:21:01.944Z,2.22
2023-02-12T07:23:49.095Z,2.38
2023-02-12T07:26:35.583Z,2.73
2023-02-12T07:29:20.519Z,2.77
2023-02-12T07:32:05.466Z,2.91
2023-02-12T07:34:50.319Z,3.05
2023-02-12T07:37:35.152Z,3.32
2023-02-12T07:40:20.182Z,3.42
2023-02-12T07:43:05.142Z,3.19
2023-02-12T07:45:50.117Z,3.46
2023-02-12T07:48:34.990Z,3.53
2023-02-12T07:51:19.964Z,4.15
2023-02-12T07:54:05.083Z,3.85
2023-02-12T07:56:50.015Z,3.95
2023-02-12T07:59:34.921Z,4.18
2023-02-12T08:02:19.687Z,4.46
2023-02-12T08:05:04.693Z,4.49
2023-02-12T08:07:49.544Z,4.52
2023-02-12T08:10:34.452Z,4.29
2023-02-12T08:13:19.421Z,4.54
2023-02-12T08:16:04.322Z,4.43
2023-02-12T08:18:49.255Z,4.36
2023-02-12T08:21:34.108Z,4.72
2023-02-12T08:24:19.170Z,4.39
2023-02-12T08:27:03.976Z,4.53
2023-02-12T08:29:48.829Z,5.03
2023-02-12T08:32:33.806Z,5.39
2023-02-12T08:35:18.608Z,5.08
2023-02-12T08:38:03.576Z,4.77
2023-02-12T08:40:48.634Z,4.63
2023-02-12T08:43:33.477Z,4.96
2023-02-12T08:46:18.348Z,5.24
2023-02-12T08:49:03.275Z,5.04
2023-02-12T08:51:48.121Z,5.40
2023-02-12T08:54:33.031Z,5.78
2023-02-12T08:57:17.972Z,5.06
2023-02-12T09:00:02.734Z,5.01
2023-02-12T09:02:47.739Z,5.32
2023-02-12T09:05:32.488Z,5.41
2023-02-12T09:08:17.461Z,5.14
2023-02-12T09:11:02.306Z,5.45
2023-02-12T09:13:47.103Z,4.87
2023-02-12T09:16:31.884Z,5.37
2023-02-12T09:19:16.799Z,5.46
2023-02-12T09:22:01.606Z,5.43
2023-02-12T09:24:46.482Z,5.98
2023-02-12T09:27:31.536Z,6.24
2023-02-12T09:30:16.325Z,5.85
2023-02-12T09:33:01.386Z,5.71
2023-02-12T09:35:46.326Z,6.22
2023-02-12T09:38:31.262Z,6.10
2023-02-12T09:41:16.119Z,6.45
2023-02-12T09:44:01.029Z,5.82
2023-02-12T09:46:45.927Z,6.46
2023-02-12T09:49:31.349Z,6.23
2023-02-12T09:52:16.150Z,6.59
2023-02-12T09:55:00.900Z,6.65
2023-02-12T09:57:45.705Z,6.84
2023-02-12T10:00:30.615Z,6.88
2023-02-12T10:03:15.499Z,6.68
2023-02-12T10:06:00.274Z,6.58
2023-02-12T10:08:45.073Z,7.00
2023-02-12T10:11:29.993Z,7.29
2023-02-12T10:14:15.007Z,7.37
2023-02-12T10:16:59.991Z,6.82
2023-02-12T10:19:45.029Z,7.07
2023-02-12T10:22:29.966Z,6.78
2023-02-12T10:25:14.736Z,5.91
2023-02-12T10:27:59.709Z,6.53
2023-02-12T10:30:44.644Z,6.53
2023-02-12T10:33:29.568Z,6.95
2023-02-12T10:36:14.303Z,7.13
2023-02-12T10:38:59.140Z,7.84
2023-02-12T10:41:44.046Z,7.63
2023-02-12T10:44:28.889Z,7.50
2023-02-12T10:47:13.880Z,7.88
2023-02-12T10:49:58.580Z,8.11
2023-02-12T10:52:43.593Z,8.70
2023-02-12T10:55:28.520Z,7.36
2023-02-12T10:58:13.504Z,8.37
2023-02-12T11:00:58.407Z,8.41
2023-02-12T11:03:43.307Z,8.79
2023-02-12T11:06:28.240Z,8.97
2023-02-12T11:09:13.023Z,8.66
2023-02-12T11:11:57.830Z,8.74
2023-02-12T11:14:42.593Z,8.91
2023-02-12T11:17:27.569Z,9.36
2023-02-12T11:20:12.455Z,8.29
2023-02-12T11:22:57.566Z,9.15
2023-02-12T11:25:42.496Z,9.29
2023-02-12T11:28:27.399Z,8.92
2023-02-12T11:31:12.823Z,9.06
2023-02-12T11:33:57.645Z,9.87
2023-02-12T11:36:42.599Z,9.74
2023-02-12T11:39:27.446Z,10.01
2023-02-12T11:42:12.298Z,9.95
2023-02-12T11:44:57.126Z,10.28
2023-02-12T11:47:42.145Z,9.79
2023-02-12T11:50:27.014Z,10.42
2023-02-12T11:53:11.912Z,10.90
2023-02-12T11:55:56.766Z,11.43
2023-02-12T11:58:41.507Z,11.32
2023-02-12T12:01:26.479Z,11.18
2023-02-12T12:04:11.388Z,11.31
2023-02-12T12:06:56.328Z,10.87
2023-02-12T12:09:41.298Z,10.58
2023-02-12T12:12:26.219Z,10.61
2023-02-12T12:15:11.058Z,9.61
2023-02-12T12:17:56.188Z,9.30
2023-02-12T12:20:41.069Z,10.03
2023-02-12T12:23:26.002Z,10.79
2023-02-12T12:26:10.912Z,11.29
2023-02-12T12:28:55.766Z,11.34
2023-02-12T12:31:40.779Z,11.65
2023-02-12T12:34:25.672Z,12.18
2023-02-12T12:37:10.619Z,12.44
2023-02-12T12:39:55.522Z,10.48
2023-02-12T12:42:40.537Z,9.99
2023-02-12T12:45:25.409Z,11.34
2023-02-12T12:48:10.180Z,10.64
2023-02-12T12:50:55.246Z,10.40
2023-02-12T12:53:40.199Z,10.48
2023-02-12T12:56:25.583Z,11.36
2023-02-12T12:59:10.375Z,12.18
2023-02-12T13:01:55.313Z,12.43
2023-02-12T13:04:40.163Z,11.82
2023-02-12T13:07:24.967Z,12.61
2023-02-12T13:10:09.836Z,12.07
2023-02-12T13:12:54.695Z,11.65
2023-02-12T13:15:39.883Z,12.49
2023-02-12T13:18:24.595Z,12.22
2023-02-12T13:21:09.533Z,11.56
2023-02-12T13:23:54.435Z,11.78
2023-02-12T13:26:39.428Z,11.47
2023-02-12T13:29:24.191Z,11.56
2023-02-12T13:32:09.315Z,11.80
2023-02-12T13:34:54.722Z,11.71
2023-02-12T13:37:39.628Z,12.01
2023-02-12T13:40:24.484Z,13.14
2023-02-12T13:43:09.430Z,12.43
2023-02-12T13:45:54.668Z,12.87
2023-02-12T13:48:39.772Z,13.70
2023-02-12T13:51:24.632Z,11.96
2023-02-12T13:54:09.522Z,12.70
2023-02-12T13:56:54.337Z,12.75
2023-02-12T13:59:39.251Z,13.46
2023-02-12T14:02:24.149Z,13.05
2023-02-12T14:05:09.136Z,13.41
2023-02-12T14:07:53.941Z,14.53
2023-02-12T14:10:38.775Z,13.78
2023-02-12T14:13:23.513Z,12.94
2023-02-12T14:16:08.421Z,13.81
2023-02-12T14:18:53.210Z,14.09
2023-02-12T14:21:38.211Z,15.03
2023-02-12T14:24:23.164Z,14.69
2023-02-12T14:27:08.025Z,14.81
2023-02-12T14:29:52.874Z,15.66
2023-02-12T14:32:37.611Z,14.75
2023-02-12T14:35:22.563Z,14.47
2023-02-12T14:38:07.407Z,15.00
2023-02-12T14:40:52.305Z,14.99
2023-02-12T14:43:37.124Z,15.43
2023-02-12T14:46:22.171Z,15.57
2023-02-12T14:49:07.105Z,15.89
2023-02-12T14:51:51.996Z,15.98
2023-02-12T14:54:37.070Z,16.09
2023-02-12T14:57:21.863Z,15.72
2023-02-12T15:00:06.758Z,15.80
2023-02-12T15:02:51.557Z,15.16
2023-02-12T15:05:36.297Z,14.67
2023-02-12T15:08:21.218Z,14.77
2023-02-12T15:11:06.197Z,13.30
2023-02-12T15:13:51.158Z,11.84
2023-02-12T15:16:35.990Z,11.54
2023-02-12T15:19:21.009Z,10.57
2023-02-12T15:22:05.924Z,10.42
2023-02-12T15:24:50.924Z,10.07
2023-02-12T15:27:35.762Z,9.10
2023-02-12T15:30:26.399Z,9.48
2023-02-12T15:33:13.628Z,9.50
2023-02-12T15:35:59.844Z,9.76
2023-02-12T15:38:44.908Z,9.54
2023-02-12T15:41:29.934Z,9.21
2023-02-12T15:44:15.196Z,8.96
2023-02-12T15:47:00.168Z,8.83
2023-02-12T15:49:44.902Z,8.61
2023-02-12T15:52:29.837Z,8.70
2023-02-12T15:55:14.714Z,8.46
2023-02-12T15:57:59.660Z,8.10
2023-02-12T16:00:44.570Z,8.45
2023-02-12T16:03:29.350Z,7.83
2023-02-12T16:06:14.354Z,7.31
2023-02-12T16:08:59.169Z,7.03
2023-02-12T16:11:44.038Z,7.23
2023-02-12T16:14:28.816Z,7.23
2023-02-12T16:17:13.655Z,7.37
2023-02-12T16:19:58.566Z,7.43
2023-02-12T16:22:43.491Z,7.39
2023-02-12T16:25:28.393Z,7.24
2023-02-12T16:28:13.285Z,7.20
2023-02-12T16:30:58.323Z,7.24
2023-02-12T16:33:43.008Z,7.18
2023-02-12T16:36:27.916Z,7.17
2023-02-12T16:39:12.529Z,6.98
2023-02-12T16:41:57.474Z,7.54
2023-02-12T16:44:42.332Z,7.19
2023-02-12T16:47:27.270Z,6.69
2023-02-12T16:50:12.300Z,6.54
2023-02-12T16:52:57.162Z,6.53
2023-02-12T16:55:42.136Z,6.53
2023-02-12T16:58:26.952Z,6.52
2023-02-12T17:01:11.917Z,6.39
2023-02-12T17:03:56.650Z,6.41
2023-02-12T17:06:41.618Z,6.24
2023-02-12T17:09:26.606Z,6.24
2023-02-12T17:12:11.530Z,6.09
2023-02-12T17:14:56.460Z,5.96
2023-02-12T17:17:41.246Z,5.78
2023-02-12T17:20:26.167Z,5.63
2023-02-12T17:23:11.059Z,5.77
2023-02-12T17:25:56.172Z,5.54
2023-02-12T17:28:41.181Z,5.43
2023-02-12T17:31:26.335Z,5.35
2023-02-12T17:34:11.156Z,5.34
2023-02-12T17:36:55.986Z,5.30
2023-02-12T17:39:41.076Z,5.31
2023-02-12T17:42:25.921Z,5.29
2023-02-12T17:45:10.872Z,5.51
2023-02-12T17:47:55.685Z,5.14
2023-02-12T17:50:40.584Z,5.08
2023-02-12T17:53:25.504Z,5.53
2023-02-12T17:56:10.607Z,5.13
2023-02-12T17:58:55.517Z,5.16
2023-02-12T18:01:40.485Z,4.98
2023-02-12T18:04:25.434Z,5.00
2023-02-12T18:07:10.247Z,5.16
2023-02-12T18:09:55.289Z,4.94
2023-02-12T18:12:40.381Z,5.12
2023-02-12T18:15:25.221Z,4.95
2023-02-12T18:18:09.931Z,5.00
2023-02-12T18:20:55.517Z,5.49
2023-02-12T18:23:41.020Z,5.43
2023-02-12T18:26:25.949Z,5.68
2023-02-12T18:29:10.865Z,5.76
2023-02-12T18:31:55.823Z,5.54
2023-02-12T18:34:40.761Z,5.65
2023-02-12T18:37:25.658Z,5.57
2023-02-12T18:40:10.605Z,5.76
2023-02-12T18:42:55.385Z,5.49
2023-02-12T18:45:40.337Z,5.54
2023-02-12T18:48:25.210Z,5.60
2023-02-12T18:51:10.085Z,5.76
2023-02-12T18:53:54.975Z,5.62
2023-02-12T18:56:39.742Z,5.53
2023-02-12T18:59:27.110Z,5.54
2023-02-12T19:02:12.170Z,5.10
2023-02-12T19:04:57.136Z,5.19
2023-02-12T19:07:41.971Z,5.36
2023-02-12T19:10:26.713Z,4.84
2023-02-12T19:13:11.740Z,4.62
2023-02-12T19:15:56.630Z,4.74
2023-02-12T19:18:41.447Z,4.74
2023-02-12T19:21:26.502Z,4.86
2023-02-12T19:24:11.737Z,4.61
2023-02-12T19:26:56.654Z,4.51
2023-02-12T19:29:41.549Z,4.76
2023-02-12T19:32:26.457Z,4.61
2023-02-12T19:35:11.266Z,4.76
2023-02-12T19:37:56.202Z,4.80
2023-02-12T19:40:41.048Z,4.86
2023-02-12T19:43:26.044Z,4.60
2023-02-12T19:46:10.861Z,5.14
2023-02-12T19:48:55.829Z,5.15
2023-02-12T19:51:40.833Z,5.06
2023-02-12T19:54:25.590Z,4.99
2023-02-12T19:57:12.571Z,4.80
2023-02-12T19:59:58.457Z,4.93
2023-02-12T20:02:44.036Z,4.83
2023-02-12T20:05:29.310Z,4.54
2023-02-12T20:08:14.232Z,4.70
2023-02-12T20:10:59.165Z,4.95
2023-02-12T20:13:43.934Z,4.94
2023-02-12T20:16:28.790Z,5.05
2023-02-12T20:19:13.454Z,4.90
2023-02-12T20:21:58.372Z,4.86
2023-02-12T20:24:43.191Z,4.60
2023-02-12T20:27:28.192Z,4.59
2023-02-12T20:30:13.056Z,4.71
2023-02-12T20:32:57.989Z,4.72
2023-02-12T20:35:42.910Z,5.03
2023-02-12T20:38:27.830Z,4.66
2023-02-12T20:41:12.652Z,4.86
2023-02-12T20:43:57.468Z,4.70
2023-02-12T20:46:42.417Z,4.84
2023-02-12T20:49:27.258Z,4.62
2023-02-12T20:52:12.087Z,4.62
2023-02-12T20:54:56.945Z,4.67
2023-02-12T20:57:41.754Z,4.87
2023-02-12T21:00:26.742Z,4.63
2023-02-12T21:03:11.666Z,4.46
2023-02-12T21:05:56.850Z,4.65
2023-02-12T21:08:41.999Z,4.63
2023-02-12T21:11:26.804Z,4.96
2023-02-12T21:14:21.942Z,4.51
2023-02-12T21:17:07.674Z,4.31
2023-02-12T21:19:52.486Z,4.58
2023-02-12T21:22:37.321Z,4.58
2023-02-12T21:25:22.181Z,4.24
2023-02-12T21:28:07.265Z,4.05
2023-02-12T21:30:52.039Z,4.52
2023-02-12T21:33:36.973Z,4.35
2023-02-12T21:36:22.081Z,4.13
2023-02-12T21:39:06.895Z,3.83
2023-02-12T21:41:51.871Z,4.14
2023-02-12T21:44:36.804Z,3.94
2023-02-12T21:47:21.671Z,3.81
2023-02-12T21:50:06.470Z,3.93
2023-02-12T21:52:51.372Z,4.18
2023-02-12T21:55:36.349Z,4.40
2023-02-12T21:58:21.326Z,4.30
2023-02-12T22:01:06.347Z,4.49
2023-02-12T22:03:51.100Z,4.35
2023-02-12T22:06:35.966Z,4.28
2023-02-12T22:09:20.809Z,4.42
2023-02-12T22:12:05.854Z,4.32
2023-02-12T22:14:50.578Z,4.55
2023-02-12T22:17:35.541Z,4.52
2023-02-12T22:20:20.398Z,4.22
2023-02-12T22:23:05.297Z,4.37
2023-02-12T22:25:50.268Z,4.29
2023-02-12T22:28:35.132Z,4.40
2023-02-12T22:31:20.071Z,4.42
2023-02-12T22:34:05.053Z,4.24
2023-02-12T22:36:49.886Z,3.89
2023-02-12T22:39:34.705Z,3.98
2023-02-12T22:42:19.826Z,3.82
2023-02-12T22:45:04.616Z,3.91
2023-02-12T22:47:49.461Z,3.89
2023-02-12T22:50:34.691Z,3.55
2023-02-12T22:53:20.597Z,4.01
2023-02-12T22:56:05.512Z,3.86
2023-02-12T22:58:50.491Z,3.61
2023-02-12T23:01:35.479Z,3.81
2023-02-12T23:04:20.424Z,4.03
2023-02-12T23:07:05.751Z,4.01
2023-02-12T23:09:50.699Z,4.06
2023-02-12T23:12:35.583Z,3.83
2023-02-12T23:15:20.536Z,3.82
2023-02-12T23:18:05.381Z,4.07
2023-02-12T23:20:50.373Z,3.84
2023-02-12T23:23:35.158Z,3.87
2023-02-12T23:26:20.076Z,3.52
2023-02-12T23:29:04.866Z,3.75
2023-02-12T23:31:49.969Z,3.97
2023-02-12T23:34:34.860Z,3.71
2023-02-12T23:37:19.686Z,3.92
2023-02-12T23:40:04.701Z,3.94
2023-02-12T23:42:49.504Z,3.62
2023-02-12T23:45:34.373Z,3.69
2023-02-12T23:48:19.153Z,3.58
2023-02-12T23:51:03.988Z,3.90
2023-02-12T23:53:48.683Z,3.64
2023-02-12T23:56:33.569Z,3.17
2023-02-12T23:59:18.457Z,3.39
